sensor_id;sensor_type;location;lat;lon;timestamp;pressure;altitude;pressure_sealevel;temperature;humidity
6134;BME280;3098;42.678;23.364;2023-05-01T00:02:15;94865.72;;;10.06;100.00
6134;BME280;3098;42.678;23.364;2023-05-01T00:04:42;94890.94;;;10.26;100.00
6134;BME280;3098;42.678;23.364;2023-05-01T00:07:09;94897.03;;;10.26;100.00
6134;BME280;3098;42.678;23.364;2023-05-01T00:09:36;94870.03;;;10.16;100.00
6134;BME280;3098;42.678;23.364;2023-05-01T00:12:03;94901.59;;;10.34;100.00
6134;BME280;3098;42.678;23.364;2023-05-01T00:14:30;94896.31;;;10.43;100.00
6134;BME280;3098;42.678;23.364;2023-05-01T00:16:59;94898.59;;;10.27;100.00
6134;BME280;3098;42.678;23.364;2023-05-01T00:19:26;94844.78;;;9.96;100.00
6134;BME280;3098;42.678;23.364;2023-05-01T00:21:53;94896.69;;;10.19;100.00
6134;BME280;3098;42.678;23.364;2023-05-01T00:24:20;94875.44;;;9.89;100.00
6134;BME280;3098;42.678;23.364;2023-05-01T00:26:47;94842.34;;;9.77;100.00
6134;BME280;3098;42.678;23.364;2023-05-01T00:29:14;94898.47;;;10.10;100.00
6134;BME280;3098;42.678;23.364;2023-05-01T00:31:41;94899.53;;;10.01;100.00
6134;BME280;3098;42.678;23.364;2023-05-01T00:34:11;94901.38;;;10.00;100.00
6134;BME280;3098;42.678;23.364;2023-05-01T00:36:38;94901.53;;;9.95;100.00
6134;BME280;3098;42.678;23.364;2023-05-01T00:39:05;94918.50;;;9.94;100.00
6134;BME280;3098;42.678;23.364;2023-05-01T00:41:33;94927.63;;;10.10;100.00
6134;BME280;3098;42.678;23.364;2023-05-01T00:43:59;94888.47;;;9.99;100.00
6134;BME280;3098;42.678;23.364;2023-05-01T00:46:27;94851.69;;;9.75;100.00
6134;BME280;3098;42.678;23.364;2023-05-01T00:48:56;94918.41;;;10.08;100.00
6134;BME280;3098;42.678;23.364;2023-05-01T00:51:25;94886.31;;;9.78;100.00
6134;BME280;3098;42.678;23.364;2023-05-01T00:53:55;94910.50;;;9.86;100.00
6134;BME280;3098;42.678;23.364;2023-05-01T00:56:23;94921.56;;;9.88;100.00
6134;BME280;3098;42.678;23.364;2023-05-01T00:58:51;94891.63;;;9.56;100.00
6134;BME280;3098;42.678;23.364;2023-05-01T01:01:20;94862.00;;;9.32;100.00
6134;BME280;3098;42.678;23.364;2023-05-01T01:03:47;94931.09;;;9.66;100.00
6134;BME280;3098;42.678;23.364;2023-05-01T01:06:20;94925.06;;;9.52;100.00
6134;BME280;3098;42.678;23.364;2023-05-01T01:09:06;94929.22;;;9.45;100.00
6134;BME280;3098;42.678;23.364;2023-05-01T01:11:44;94845.66;;;8.94;100.00
6134;BME280;3098;42.678;23.364;2023-05-01T01:14:17;94894.66;;;9.28;100.00
6134;BME280;3098;42.678;23.364;2023-05-01T01:16:51;94773.88;;;8.51;100.00
6134;BME280;3098;42.678;23.364;2023-05-01T01:22:19;94940.75;;;9.49;100.00
6134;BME280;3098;42.678;23.364;2023-05-01T01:25:13;94949.88;;;9.43;100.00
6134;BME280;3098;42.678;23.364;2023-05-01T01:28:03;94911.66;;;9.13;100.00
6134;BME280;3098;42.678;23.364;2023-05-01T01:31:04;94958.94;;;9.42;100.00
6134;BME280;3098;42.678;23.364;2023-05-01T01:34:00;94913.25;;;9.00;100.00
6134;BME280;3098;42.678;23.364;2023-05-01T01:36:38;94961.50;;;9.19;100.00
6134;BME280;3098;42.678;23.364;2023-05-01T01:39:11;94920.09;;;9.01;100.00
6134;BME280;3098;42.678;23.364;2023-05-01T01:41:42;94960.53;;;9.29;100.00
6134;BME280;3098;42.678;23.364;2023-05-01T01:44:16;94862.97;;;8.64;100.00
6134;BME280;3098;42.678;23.364;2023-05-01T01:46:47;94924.31;;;8.89;100.00
6134;BME280;3098;42.678;23.364;2023-05-01T01:49:19;94959.56;;;9.11;100.00
6134;BME280;3098;42.678;23.364;2023-05-01T01:51:49;94903.19;;;8.75;100.00
6134;BME280;3098;42.678;23.364;2023-05-01T01:54:21;94940.28;;;8.97;100.00
6134;BME280;3098;42.678;23.364;2023-05-01T01:56:51;94954.38;;;9.06;100.00
6134;BME280;3098;42.678;23.364;2023-05-01T01:59:20;94947.06;;;8.90;100.00
6134;BME280;3098;42.678;23.364;2023-05-01T02:01:50;94956.38;;;8.74;100.00
6134;BME280;3098;42.678;23.364;2023-05-01T02:04:20;94904.84;;;8.30;100.00
6134;BME280;3098;42.678;23.364;2023-05-01T02:06:48;94878.56;;;8.06;100.00
6134;BME280;3098;42.678;23.364;2023-05-01T02:09:17;94974.16;;;8.54;100.00
6134;BME280;3098;42.678;23.364;2023-05-01T02:11:45;94934.81;;;8.39;100.00
6134;BME280;3098;42.678;23.364;2023-05-01T02:14:14;94963.81;;;8.72;100.00
6134;BME280;3098;42.678;23.364;2023-05-01T02:16:43;94962.06;;;8.67;100.00
6134;BME280;3098;42.678;23.364;2023-05-01T02:19:12;94902.22;;;8.30;100.00
6134;BME280;3098;42.678;23.364;2023-05-01T02:21:42;94968.50;;;8.75;100.00
6134;BME280;3098;42.678;23.364;2023-05-01T02:24:11;94890.63;;;8.26;100.00
6134;BME280;3098;42.678;23.364;2023-05-01T02:26:41;94882.69;;;7.99;100.00
6134;BME280;3098;42.678;23.364;2023-05-01T02:29:10;94932.97;;;8.53;100.00
6134;BME280;3098;42.678;23.364;2023-05-01T02:31:37;94780.72;;;7.43;100.00
6134;BME280;3098;42.678;23.364;2023-05-01T02:34:04;94965.06;;;8.60;100.00
6134;BME280;3098;42.678;23.364;2023-05-01T02:36:31;94776.50;;;7.42;100.00
6134;BME280;3098;42.678;23.364;2023-05-01T02:39:00;94927.09;;;8.43;100.00
6134;BME280;3098;42.678;23.364;2023-05-01T02:41:29;94941.28;;;8.47;100.00
6134;BME280;3098;42.678;23.364;2023-05-01T02:44:00;94964.00;;;8.34;100.00
6134;BME280;3098;42.678;23.364;2023-05-01T02:46:29;94962.91;;;8.35;100.00
6134;BME280;3098;42.678;23.364;2023-05-01T02:48:58;94970.03;;;8.35;100.00
6134;BME280;3098;42.678;23.364;2023-05-01T02:51:27;94908.59;;;7.97;100.00
6134;BME280;3098;42.678;23.364;2023-05-01T02:53:56;94965.38;;;8.45;100.00
6134;BME280;3098;42.678;23.364;2023-05-01T02:56:26;94973.00;;;8.33;100.00
6134;BME280;3098;42.678;23.364;2023-05-01T02:58:54;94966.88;;;8.19;100.00
6134;BME280;3098;42.678;23.364;2023-05-01T03:01:21;94975.63;;;8.33;100.00
6134;BME280;3098;42.678;23.364;2023-05-01T03:03:48;94930.00;;;7.95;100.00
6134;BME280;3098;42.678;23.364;2023-05-01T03:06:16;94954.50;;;8.15;100.00
6134;BME280;3098;42.678;23.364;2023-05-01T03:08:43;94947.91;;;7.98;100.00
6134;BME280;3098;42.678;23.364;2023-05-01T03:11:12;94918.84;;;7.85;100.00
6134;BME280;3098;42.678;23.364;2023-05-01T03:13:40;94957.63;;;8.03;100.00
6134;BME280;3098;42.678;23.364;2023-05-01T03:16:07;94984.66;;;8.14;100.00
6134;BME280;3098;42.678;23.364;2023-05-01T03:18:35;94960.59;;;7.83;100.00
6134;BME280;3098;42.678;23.364;2023-05-01T03:21:01;94987.53;;;7.98;100.00
6134;BME280;3098;42.678;23.364;2023-05-01T03:23:28;94990.47;;;7.97;100.00
6134;BME280;3098;42.678;23.364;2023-05-01T03:25:55;94970.59;;;7.86;100.00
6134;BME280;3098;42.678;23.364;2023-05-01T03:28:24;94990.66;;;8.00;100.00
6134;BME280;3098;42.678;23.364;2023-05-01T03:30:53;94980.84;;;7.87;100.00
6134;BME280;3098;42.678;23.364;2023-05-01T03:33:20;94971.75;;;7.80;100.00
6134;BME280;3098;42.678;23.364;2023-05-01T03:35:47;94949.34;;;7.59;100.00
6134;BME280;3098;42.678;23.364;2023-05-01T03:38:15;94993.97;;;7.92;100.00
6134;BME280;3098;42.678;23.364;2023-05-01T03:40:42;95001.53;;;7.99;100.00
6134;BME280;3098;42.678;23.364;2023-05-01T03:43:09;94902.81;;;7.30;100.00
6134;BME280;3098;42.678;23.364;2023-05-01T03:45:36;94999.19;;;7.97;100.00
6134;BME280;3098;42.678;23.364;2023-05-01T03:48:05;94999.47;;;7.96;100.00
6134;BME280;3098;42.678;23.364;2023-05-01T03:50:32;94950.47;;;7.71;100.00
6134;BME280;3098;42.678;23.364;2023-05-01T03:52:59;95010.41;;;8.22;100.00
6134;BME280;3098;42.678;23.364;2023-05-01T03:55:26;95013.53;;;8.24;100.00
6134;BME280;3098;42.678;23.364;2023-05-01T03:57:53;94953.97;;;7.67;100.00
6134;BME280;3098;42.678;23.364;2023-05-01T04:00:21;94951.91;;;7.64;100.00
6134;BME280;3098;42.678;23.364;2023-05-01T04:02:48;95023.72;;;7.98;100.00
6134;BME280;3098;42.678;23.364;2023-05-01T04:05:17;94994.75;;;7.93;100.00
6134;BME280;3098;42.678;23.364;2023-05-01T04:07:45;94861.47;;;7.07;100.00
6134;BME280;3098;42.678;23.364;2023-05-01T04:10:13;94960.38;;;7.79;100.00
6134;BME280;3098;42.678;23.364;2023-05-01T04:12:41;95024.34;;;8.27;100.00
6134;BME280;3098;42.678;23.364;2023-05-01T04:15:09;95025.34;;;8.31;100.00
6134;BME280;3098;42.678;23.364;2023-05-01T04:17:36;95022.53;;;8.41;100.00
6134;BME280;3098;42.678;23.364;2023-05-01T04:20:04;95019.63;;;8.56;100.00
6134;BME280;3098;42.678;23.364;2023-05-01T04:22:33;95023.53;;;8.59;100.00
6134;BME280;3098;42.678;23.364;2023-05-01T04:25:01;94930.25;;;8.13;100.00
6134;BME280;3098;42.678;23.364;2023-05-01T04:27:29;94954.28;;;8.30;100.00
6134;BME280;3098;42.678;23.364;2023-05-01T04:29:56;94881.50;;;7.91;100.00
6134;BME280;3098;42.678;23.364;2023-05-01T04:32:23;95017.19;;;9.01;100.00
6134;BME280;3098;42.678;23.364;2023-05-01T04:34:50;95023.56;;;9.27;100.00
6134;BME280;3098;42.678;23.364;2023-05-01T04:37:18;94984.56;;;9.19;100.00
6134;BME280;3098;42.678;23.364;2023-05-01T04:39:46;95017.13;;;9.55;100.00
6134;BME280;3098;42.678;23.364;2023-05-01T04:42:13;95017.41;;;9.67;100.00
6134;BME280;3098;42.678;23.364;2023-05-01T04:44:41;94958.03;;;9.46;100.00
6134;BME280;3098;42.678;23.364;2023-05-01T04:47:08;95015.50;;;10.04;100.00
6134;BME280;3098;42.678;23.364;2023-05-01T04:49:35;95022.44;;;10.13;100.00
6134;BME280;3098;42.678;23.364;2023-05-01T04:52:02;94991.94;;;10.02;100.00
6134;BME280;3098;42.678;23.364;2023-05-01T04:54:29;94993.28;;;9.91;100.00
6134;BME280;3098;42.678;23.364;2023-05-01T04:56:57;95024.53;;;10.03;100.00
6134;BME280;3098;42.678;23.364;2023-05-01T04:59:24;95025.47;;;10.20;100.00
6134;BME280;3098;42.678;23.364;2023-05-01T05:01:51;94977.50;;;10.08;100.00
6134;BME280;3098;42.678;23.364;2023-05-01T05:04:18;94933.63;;;9.71;100.00
6134;BME280;3098;42.678;23.364;2023-05-01T05:06:45;94988.06;;;10.44;100.00
6134;BME280;3098;42.678;23.364;2023-05-01T05:09:13;94953.59;;;10.44;100.00
6134;BME280;3098;42.678;23.364;2023-05-01T05:11:40;94969.91;;;11.25;100.00
6134;BME280;3098;42.678;23.364;2023-05-01T05:14:08;94994.03;;;13.74;100.00
6134;BME280;3098;42.678;23.364;2023-05-01T05:16:36;95030.59;;;15.86;100.00
6134;BME280;3098;42.678;23.364;2023-05-01T05:19:03;95032.56;;;18.67;88.60
6134;BME280;3098;42.678;23.364;2023-05-01T05:21:30;94979.28;;;20.23;67.84
6134;BME280;3098;42.678;23.364;2023-05-01T05:23:57;95036.44;;;21.05;57.00
6134;BME280;3098;42.678;23.364;2023-05-01T05:26:24;95034.22;;;21.14;56.04
6134;BME280;3098;42.678;23.364;2023-05-01T05:28:51;95018.13;;;22.27;49.40
6134;BME280;3098;42.678;23.364;2023-05-01T05:31:20;95029.50;;;22.64;48.19
6134;BME280;3098;42.678;23.364;2023-05-01T05:33:47;94985.81;;;22.62;44.66
6134;BME280;3098;42.678;23.364;2023-05-01T05:36:14;95037.50;;;20.97;49.63
6134;BME280;3098;42.678;23.364;2023-05-01T05:38:41;94935.19;;;21.62;47.73
6134;BME280;3098;42.678;23.364;2023-05-01T05:41:08;95043.63;;;23.65;44.39
6134;BME280;3098;42.678;23.364;2023-05-01T05:43:35;94965.38;;;22.68;42.14
6134;BME280;3098;42.678;23.364;2023-05-01T05:46:03;95036.97;;;23.13;44.53
6134;BME280;3098;42.678;23.364;2023-05-01T05:48:31;95023.03;;;23.08;43.59
6134;BME280;3098;42.678;23.364;2023-05-01T05:50:59;95013.84;;;23.58;42.30
6134;BME280;3098;42.678;23.364;2023-05-01T05:53:26;95043.94;;;24.27;40.20
6134;BME280;3098;42.678;23.364;2023-05-01T05:55:53;94984.34;;;25.03;37.65
6134;BME280;3098;42.678;23.364;2023-05-01T05:58:20;94778.44;;;22.98;39.62
6134;BME280;3098;42.678;23.364;2023-05-01T06:00:49;95023.72;;;24.49;39.20
6134;BME280;3098;42.678;23.364;2023-05-01T06:03:17;95057.53;;;23.57;41.42
6134;BME280;3098;42.678;23.364;2023-05-01T06:05:46;94961.94;;;22.82;41.99
6134;BME280;3098;42.678;23.364;2023-05-01T06:08:14;95065.66;;;23.88;41.08
6134;BME280;3098;42.678;23.364;2023-05-01T06:10:42;95029.56;;;22.85;42.70
6134;BME280;3098;42.678;23.364;2023-05-01T06:13:10;94991.56;;;22.47;43.36
6134;BME280;3098;42.678;23.364;2023-05-01T06:15:38;94957.72;;;23.80;40.54
6134;BME280;3098;42.678;23.364;2023-05-01T06:18:06;95066.69;;;24.58;39.61
6134;BME280;3098;42.678;23.364;2023-05-01T06:20:33;95047.09;;;25.16;38.36
6134;BME280;3098;42.678;23.364;2023-05-01T06:23:02;95066.41;;;26.65;35.59
6134;BME280;3098;42.678;23.364;2023-05-01T06:25:29;95036.41;;;25.50;36.17
6134;BME280;3098;42.678;23.364;2023-05-01T06:27:56;95053.84;;;24.73;38.83
6134;BME280;3098;42.678;23.364;2023-05-01T06:30:23;95071.41;;;23.23;40.29
6134;BME280;3098;42.678;23.364;2023-05-01T06:32:50;95070.69;;;23.62;41.06
6134;BME280;3098;42.678;23.364;2023-05-01T06:35:17;95062.19;;;23.56;41.00
6134;BME280;3098;42.678;23.364;2023-05-01T06:37:45;95034.22;;;21.11;44.54
6134;BME280;3098;42.678;23.364;2023-05-01T06:40:13;95011.84;;;20.11;48.58
6134;BME280;3098;42.678;23.364;2023-05-01T06:42:40;94893.47;;;21.53;44.33
6134;BME280;3098;42.678;23.364;2023-05-01T06:45:08;95062.81;;;24.63;39.43
6134;BME280;3098;42.678;23.364;2023-05-01T06:47:35;95056.31;;;24.35;38.81
6134;BME280;3098;42.678;23.364;2023-05-01T06:50:03;95032.78;;;23.79;40.54
6134;BME280;3098;42.678;23.364;2023-05-01T06:52:32;95028.94;;;22.30;42.48
6134;BME280;3098;42.678;23.364;2023-05-01T06:54:59;95029.53;;;22.82;42.91
6134;BME280;3098;42.678;23.364;2023-05-01T06:57:29;95046.94;;;22.81;41.84
6134;BME280;3098;42.678;23.364;2023-05-01T06:59:56;95047.56;;;20.67;46.88
6134;BME280;3098;42.678;23.364;2023-05-01T07:02:23;95029.69;;;20.52;46.61
6134;BME280;3098;42.678;23.364;2023-05-01T07:04:52;95055.72;;;20.41;48.74
6134;BME280;3098;42.678;23.364;2023-05-01T07:07:19;95019.50;;;22.79;43.49
6134;BME280;3098;42.678;23.364;2023-05-01T07:09:49;95069.44;;;23.13;42.48
6134;BME280;3098;42.678;23.364;2023-05-01T07:12:16;95067.22;;;23.82;42.60
6134;BME280;3098;42.678;23.364;2023-05-01T07:14:44;94993.69;;;23.73;41.48
6134;BME280;3098;42.678;23.364;2023-05-01T07:17:11;95076.38;;;25.49;38.88
6134;BME280;3098;42.678;23.364;2023-05-01T07:19:39;95024.53;;;25.81;37.61
6134;BME280;3098;42.678;23.364;2023-05-01T07:22:06;95072.94;;;25.93;36.54
6134;BME280;3098;42.678;23.364;2023-05-01T07:24:33;95081.31;;;26.13;36.58
6134;BME280;3098;42.678;23.364;2023-05-01T07:27:01;95053.75;;;25.66;37.46
6134;BME280;3098;42.678;23.364;2023-05-01T07:29:27;95084.56;;;26.75;36.61
6134;BME280;3098;42.678;23.364;2023-05-01T07:31:57;94775.44;;;24.52;36.25
6134;BME280;3098;42.678;23.364;2023-05-01T07:34:24;95089.50;;;25.61;37.47
6134;BME280;3098;42.678;23.364;2023-05-01T07:36:52;94900.06;;;23.86;37.58
6134;BME280;3098;42.678;23.364;2023-05-01T07:39:20;95032.09;;;25.56;37.50
6134;BME280;3098;42.678;23.364;2023-05-01T07:41:48;95045.53;;;23.86;40.38
6134;BME280;3098;42.678;23.364;2023-05-01T07:44:17;95081.94;;;25.21;38.97
6134;BME280;3098;42.678;23.364;2023-05-01T07:46:44;95077.22;;;24.49;38.86
6134;BME280;3098;42.678;23.364;2023-05-01T07:49:14;95081.44;;;24.53;39.08
6134;BME280;3098;42.678;23.364;2023-05-01T07:51:41;95080.00;;;23.92;40.62
6134;BME280;3098;42.678;23.364;2023-05-01T07:54:09;95077.13;;;24.70;39.94
6134;BME280;3098;42.678;23.364;2023-05-01T07:56:39;94967.72;;;24.15;39.76
6134;BME280;3098;42.678;23.364;2023-05-01T07:59:08;95081.31;;;24.99;39.37
6134;BME280;3098;42.678;23.364;2023-05-01T08:01:35;94900.06;;;22.49;40.73
6134;BME280;3098;42.678;23.364;2023-05-01T08:04:03;95075.53;;;25.59;38.87
6134;BME280;3098;42.678;23.364;2023-05-01T08:06:32;94934.53;;;22.87;42.11
6134;BME280;3098;42.678;23.364;2023-05-01T08:08:59;95061.63;;;24.67;39.56
6134;BME280;3098;42.678;23.364;2023-05-01T08:11:27;94981.00;;;26.25;36.90
6134;BME280;3098;42.678;23.364;2023-05-01T08:13:54;95074.78;;;24.83;38.77
6134;BME280;3098;42.678;23.364;2023-05-01T08:16:22;95073.88;;;25.07;39.22
6134;BME280;3098;42.678;23.364;2023-05-01T08:18:50;95077.69;;;23.84;40.29
6134;BME280;3098;42.678;23.364;2023-05-01T08:21:17;95075.72;;;24.02;40.71
6134;BME280;3098;42.678;23.364;2023-05-01T08:23:47;95074.88;;;26.71;35.97
6134;BME280;3098;42.678;23.364;2023-05-01T08:26:15;95069.56;;;25.20;36.17
6134;BME280;3098;42.678;23.364;2023-05-01T08:28:43;95083.19;;;25.75;34.30
6134;BME280;3098;42.678;23.364;2023-05-01T08:31:11;95074.63;;;26.62;33.44
6134;BME280;3098;42.678;23.364;2023-05-01T08:33:39;95072.16;;;27.88;30.87
6134;BME280;3098;42.678;23.364;2023-05-01T08:36:08;95044.53;;;27.06;30.71
6134;BME280;3098;42.678;23.364;2023-05-01T08:38:35;95081.28;;;26.57;32.38
6134;BME280;3098;42.678;23.364;2023-05-01T08:41:05;95085.94;;;27.24;31.89
6134;BME280;3098;42.678;23.364;2023-05-01T08:43:33;95025.00;;;24.13;35.17
6134;BME280;3098;42.678;23.364;2023-05-01T08:46:01;94813.88;;;23.60;34.93
6134;BME280;3098;42.678;23.364;2023-05-01T08:48:31;95069.22;;;26.58;33.47
6134;BME280;3098;42.678;23.364;2023-05-01T08:51:02;95015.03;;;28.05;30.50
6134;BME280;3098;42.678;23.364;2023-05-01T08:53:31;95067.72;;;24.99;34.91
6134;BME280;3098;42.678;23.364;2023-05-01T08:56:00;95064.81;;;24.44;35.88
6134;BME280;3098;42.678;23.364;2023-05-01T08:58:36;95012.75;;;24.85;35.60
6134;BME280;3098;42.678;23.364;2023-05-01T09:01:04;94911.63;;;24.77;33.38
6134;BME280;3098;42.678;23.364;2023-05-01T09:03:32;95062.41;;;24.75;34.62
6134;BME280;3098;42.678;23.364;2023-05-01T09:06:02;95046.97;;;22.95;37.52
6134;BME280;3098;42.678;23.364;2023-05-01T09:08:30;95056.75;;;25.21;34.89
6134;BME280;3098;42.678;23.364;2023-05-01T09:10:58;95060.59;;;24.26;35.67
6134;BME280;3098;42.678;23.364;2023-05-01T09:13:26;95044.00;;;23.78;37.36
6134;BME280;3098;42.678;23.364;2023-05-01T09:15:55;95045.88;;;24.30;36.21
6134;BME280;3098;42.678;23.364;2023-05-01T09:18:24;95057.78;;;22.84;38.35
6134;BME280;3098;42.678;23.364;2023-05-01T09:20:52;95042.75;;;24.35;36.50
6134;BME280;3098;42.678;23.364;2023-05-01T09:23:19;95060.13;;;24.63;36.95
6134;BME280;3098;42.678;23.364;2023-05-01T09:25:47;94996.41;;;23.34;36.55
6134;BME280;3098;42.678;23.364;2023-05-01T09:28:15;95063.03;;;22.56;39.00
6134;BME280;3098;42.678;23.364;2023-05-01T09:30:42;95070.16;;;22.93;38.37
6134;BME280;3098;42.678;23.364;2023-05-01T09:33:13;94915.56;;;21.14;40.43
6134;BME280;3098;42.678;23.364;2023-05-01T09:35:48;94991.34;;;22.01;40.69
6134;BME280;3098;42.678;23.364;2023-05-01T09:38:17;95023.50;;;23.63;38.75
6134;BME280;3098;42.678;23.364;2023-05-01T09:40:46;95043.63;;;23.86;37.22
6134;BME280;3098;42.678;23.364;2023-05-01T09:43:13;95036.94;;;23.03;38.27
6134;BME280;3098;42.678;23.364;2023-05-01T09:45:42;95058.84;;;21.97;39.52
6134;BME280;3098;42.678;23.364;2023-05-01T09:48:26;94952.16;;;22.39;38.61
6134;BME280;3098;42.678;23.364;2023-05-01T09:50:55;95057.16;;;24.11;36.32
6134;BME280;3098;42.678;23.364;2023-05-01T09:53:36;94996.38;;;25.57;34.21
6134;BME280;3098;42.678;23.364;2023-05-01T09:56:05;95056.00;;;23.98;35.92
6134;BME280;3098;42.678;23.364;2023-05-01T09:58:32;95036.66;;;23.92;36.63
6134;BME280;3098;42.678;23.364;2023-05-01T10:00:59;95045.47;;;21.64;39.84
6134;BME280;3098;42.678;23.364;2023-05-01T10:03:29;95039.03;;;21.79;40.22
6134;BME280;3098;42.678;23.364;2023-05-01T10:05:57;94986.69;;;21.98;38.93
6134;BME280;3098;42.678;23.364;2023-05-01T10:08:26;94992.50;;;21.49;40.27
6134;BME280;3098;42.678;23.364;2023-05-01T10:10:59;95040.69;;;21.91;40.59
6134;BME280;3098;42.678;23.364;2023-05-01T10:13:29;95042.03;;;21.67;42.31
6134;BME280;3098;42.678;23.364;2023-05-01T10:15:56;94929.41;;;22.50;37.86
6134;BME280;3098;42.678;23.364;2023-05-01T10:18:27;95033.84;;;22.90;38.31
6134;BME280;3098;42.678;23.364;2023-05-01T10:20:55;95032.25;;;21.99;40.56
6134;BME280;3098;42.678;23.364;2023-05-01T10:23:24;95037.75;;;22.20;40.00
6134;BME280;3098;42.678;23.364;2023-05-01T10:25:51;94927.00;;;20.60;40.80
6134;BME280;3098;42.678;23.364;2023-05-01T10:28:20;94966.41;;;20.39;42.73
6134;BME280;3098;42.678;23.364;2023-05-01T10:30:50;94893.25;;;20.74;43.12
6134;BME280;3098;42.678;23.364;2023-05-01T10:33:17;95023.78;;;22.87;37.05
6134;BME280;3098;42.678;23.364;2023-05-01T10:35:53;95028.88;;;23.20;36.23
6134;BME280;3098;42.678;23.364;2023-05-01T10:38:24;94943.72;;;24.10;33.24
6134;BME280;3098;42.678;23.364;2023-05-01T10:40:52;95021.16;;;24.11;32.67
6134;BME280;3098;42.678;23.364;2023-05-01T10:43:21;95011.09;;;21.54;36.13
6134;BME280;3098;42.678;23.364;2023-05-01T10:45:50;95025.94;;;22.57;35.30
6134;BME280;3098;42.678;23.364;2023-05-01T10:51:22;94954.06;;;21.62;38.87
6134;BME280;3098;42.678;23.364;2023-05-01T10:56:55;95018.31;;;20.06;42.93
6134;BME280;3098;42.678;23.364;2023-05-01T10:59:23;95013.09;;;18.96;45.14
6134;BME280;3098;42.678;23.364;2023-05-01T11:01:52;95043.44;;;18.55;45.83
6134;BME280;3098;42.678;23.364;2023-05-01T11:04:49;95025.53;;;18.62;45.47
6134;BME280;3098;42.678;23.364;2023-05-01T11:07:20;95025.75;;;19.15;44.89
6134;BME280;3098;42.678;23.364;2023-05-01T11:09:49;95021.53;;;19.89;42.73
6134;BME280;3098;42.678;23.364;2023-05-01T11:12:48;95024.88;;;21.05;40.75
6134;BME280;3098;42.678;23.364;2023-05-01T11:15:29;95016.97;;;22.31;38.18
6134;BME280;3098;42.678;23.364;2023-05-01T11:17:57;94916.72;;;22.68;35.87
6134;BME280;3098;42.678;23.364;2023-05-01T11:20:47;95019.72;;;21.73;38.18
6134;BME280;3098;42.678;23.364;2023-05-01T11:23:20;95023.81;;;22.98;36.51
6134;BME280;3098;42.678;23.364;2023-05-01T11:25:48;95004.16;;;23.39;34.51
6134;BME280;3098;42.678;23.364;2023-05-01T11:28:21;94956.03;;;22.45;35.37
6134;BME280;3098;42.678;23.364;2023-05-01T11:30:50;95008.25;;;22.66;35.50
6134;BME280;3098;42.678;23.364;2023-05-01T11:33:21;95005.25;;;24.02;34.05
6134;BME280;3098;42.678;23.364;2023-05-01T11:36:00;95021.78;;;24.57;33.88
6134;BME280;3098;42.678;23.364;2023-05-01T11:38:30;94998.31;;;22.99;33.30
6134;BME280;3098;42.678;23.364;2023-05-01T11:40:59;94911.22;;;21.03;36.47
6134;BME280;3098;42.678;23.364;2023-05-01T11:43:28;94956.00;;;22.38;35.71
6134;BME280;3098;42.678;23.364;2023-05-01T11:45:57;95015.50;;;21.83;37.51
6134;BME280;3098;42.678;23.364;2023-05-01T11:48:30;94929.63;;;20.97;38.16
6134;BME280;3098;42.678;23.364;2023-05-01T11:51:00;94981.72;;;21.49;37.36
6134;BME280;3098;42.678;23.364;2023-05-01T11:53:27;95006.59;;;21.75;38.12
6134;BME280;3098;42.678;23.364;2023-05-01T11:55:56;94997.22;;;21.59;37.89
6134;BME280;3098;42.678;23.364;2023-05-01T11:58:31;94997.84;;;21.38;37.91
6134;BME280;3098;42.678;23.364;2023-05-01T12:00:58;95036.78;;;21.41;38.53
6134;BME280;3098;42.678;23.364;2023-05-01T12:03:26;94643.13;;;18.21;39.66
6134;BME280;3098;42.678;23.364;2023-05-01T12:05:54;95020.91;;;20.25;39.98
6134;BME280;3098;42.678;23.364;2023-05-01T12:08:23;95004.88;;;20.06;40.78
6134;BME280;3098;42.678;23.364;2023-05-01T12:10:54;95000.69;;;19.82;40.05
6134;BME280;3098;42.678;23.364;2023-05-01T12:13:23;94990.53;;;20.28;37.66
6134;BME280;3098;42.678;23.364;2023-05-01T12:15:52;95009.75;;;20.56;36.91
6134;BME280;3098;42.678;23.364;2023-05-01T12:18:20;95055.09;;;19.95;39.21
6134;BME280;3098;42.678;23.364;2023-05-01T12:20:50;95026.72;;;19.75;40.21
6134;BME280;3098;42.678;23.364;2023-05-01T12:23:29;94742.88;;;18.01;38.71
6134;BME280;3098;42.678;23.364;2023-05-01T12:25:56;95049.22;;;19.63;39.89
6134;BME280;3098;42.678;23.364;2023-05-01T12:28:25;95032.31;;;19.63;40.43
6134;BME280;3098;42.678;23.364;2023-05-01T12:30:56;94824.59;;;17.84;40.19
6134;BME280;3098;42.678;23.364;2023-05-01T12:33:26;95053.78;;;19.59;39.96
6134;BME280;3098;42.678;23.364;2023-05-01T12:36:08;94969.63;;;19.13;40.69
6134;BME280;3098;42.678;23.364;2023-05-01T12:38:36;95027.41;;;19.23;43.28
6134;BME280;3098;42.678;23.364;2023-05-01T12:41:04;94964.75;;;18.54;43.99
6134;BME280;3098;42.678;23.364;2023-05-01T12:43:36;94965.47;;;18.51;44.48
6134;BME280;3098;42.678;23.364;2023-05-01T12:46:12;95021.72;;;19.50;44.22
6134;BME280;3098;42.678;23.364;2023-05-01T12:48:40;95029.66;;;19.92;43.72
6134;BME280;3098;42.678;23.364;2023-05-01T12:51:07;95037.53;;;19.78;43.84
6134;BME280;3098;42.678;23.364;2023-05-01T12:53:42;94795.78;;;18.23;43.84
6134;BME280;3098;42.678;23.364;2023-05-01T12:56:20;94812.25;;;18.44;44.24
6134;BME280;3098;42.678;23.364;2023-05-01T12:58:52;95018.94;;;19.43;45.58
6134;BME280;3098;42.678;23.364;2023-05-01T13:01:23;95035.41;;;19.19;47.39
6134;BME280;3098;42.678;23.364;2023-05-01T13:03:52;94975.63;;;19.03;46.65
6134;BME280;3098;42.678;23.364;2023-05-01T13:06:30;94996.66;;;19.69;45.78
6134;BME280;3098;42.678;23.364;2023-05-01T13:09:06;94968.00;;;19.31;45.67
6134;BME280;3098;42.678;23.364;2023-05-01T13:11:36;94990.72;;;19.34;44.86
6134;BME280;3098;42.678;23.364;2023-05-01T13:14:08;95026.94;;;19.40;44.48
6134;BME280;3098;42.678;23.364;2023-05-01T13:16:43;94994.13;;;18.85;45.61
6134;BME280;3098;42.678;23.364;2023-05-01T13:19:12;94952.66;;;18.64;45.58
6134;BME280;3098;42.678;23.364;2023-05-01T13:21:46;95033.66;;;19.30;44.85
6134;BME280;3098;42.678;23.364;2023-05-01T13:24:17;95012.72;;;19.17;44.73
6134;BME280;3098;42.678;23.364;2023-05-01T13:26:45;94824.75;;;17.72;44.59
6134;BME280;3098;42.678;23.364;2023-05-01T13:29:15;94828.81;;;17.85;44.18
6134;BME280;3098;42.678;23.364;2023-05-01T13:31:43;95034.44;;;18.85;43.78